アムステルダム/スキポール の空港の天気 - METARとTAF

スキポール空港(アムステルダム) ( EHAM / AMS ) - オランダ アムステルダム
飛行場実況気象(Metar)
観測時間05/28 21:55 CEST (05/28 19:55 UTC)
風向・風速北東 3m/s
視程10km以上
天気現象
なし
気温18℃
湿度68%
気圧1017hPa
METAREHAM 281955Z 04005KT CAVOK 18/12 Q1017 NOSIG
過去の天気等 Google飛行場航空写真 Wunderground天気予報

過去48時間のMETAR

飛行場予報(TAF)
発表時間: 5/28 19:15 CEST (5/28 17:15 UTC)
予報対象時間: 28日20時 CEST ~ 30日2時 CEST
風向・風速北 4m/s
視程10km以上
なし
29日3時 CEST ~ 29日7時 CEST に 確率 30% で一時的に
視程6,000m
天気現象しゅう雨
全天の4割程度の積乱雲 雲底高度 1,520m
29日5時 CEST ~ 29日8時 CEST に徐々に
風向・風速東 5m/s
29日12時 CEST ~ 29日15時 CEST に徐々に
風向・風速西 6m/s
29日20時 CEST ~ 29日23時 CEST に徐々に
風向・風速西南西 3m/s
29日21時 CEST ~ 30日1時 CEST に 確率 40% で一時的に
風向・風速西南西 8m/s 瞬間風速 13m/s
視程4,000m
天気現象しゅう雨 雷雨
全天の4割程度の積乱雲 雲底高度 910m
30日0時 CEST から 確率 40% で
視程4,000m
天気現象もや
TAF EHAM 281715Z 2818/2924 35008KT CAVOK
PROB30 TEMPO 2901/2905 6000 SHRA SCT050CB
BECMG 2903/2906 09010KT
BECMG 2910/2913 28012KT
BECMG 2918/2921 24006KT
PROB40 TEMPO 2919/2923 25015G25KT 4000 SHRA TSRA SCT030CB
PROB40 2922/2924 4000 BR